Anacortes, Washington
Current Conditions -  °F | °C
As of 8:56 PM on Thursday 30 Oct 2014 (Local Time) from KNUW Reporting Station
Light Rain Light Rain  
Wind Chill: 56°   Ceiling: 3600
Heat Index: 56°   Visibility: 10mi
Dew Point: 52°   Wind: 0mph
Humidity: 87%   Direction: NA
Pressure: 29.76"   Gusts: NA
Location:  48.51°N, 122.61°W
Report Text: KNUW 310356Z 00000KT 10SM -RA FEW011 SCT023 OVC036 13/11 A2976 RMK AO2 SLP082 P0000 T01330111 $
Loading
Personal Weather Stations






























Interactive Weather Map
Tropical Storm Tracking
New forecast layout! Learn more

10-Day Weather Forecast

Advertisements
Track Severe Weather on mobile